Time;durP1;ratioP1;P1;durP2;ratioP2;P2;SDS_P1;SDS_P2;PMS_P1;PMS_P2;Temp;Humidity;BMP_temperature;BMP_pressure;BME280_temperature;BME280_humidity;BME280_pressure;Samples;Min_cycle;Max_cycle;Signal;HPM_P1;HPM_P2
2022/09/09 00:01:45;;;;;;;12.18;4.50;;;;;;;8.86;82.56;99882.39;1673641;84;21568;-69
2022/09/09 00:04:30;;;;;;;9.55;4.00;;;;;;;8.82;82.70;99880.80;1675270;84;21000;-68
2022/09/09 00:07:38;;;;;;;7.80;4.05;;;;;;;8.80;82.77;99880.27;1687872;84;21245;-67
2022/09/09 00:10:32;;;;;;;8.88;4.25;;;;;;;8.78;82.81;99884.42;1649622;84;20999;-67
2022/09/09 00:13:23;;;;;;;8.28;4.17;;;;;;;8.73;83.33;99887.22;1672162;84;21118;-67
2022/09/09 00:16:03;;;;;;;8.35;4.60;;;;;;;8.70;83.48;99885.89;1666262;84;21126;-67
2022/09/09 00:19:09;;;;;;;7.67;4.55;;;;;;;8.68;83.38;99885.92;1659864;84;21006;-67
2022/09/09 00:21:41;;;;;;;10.72;4.70;;;;;;;8.64;83.57;99886.28;1665123;84;21190;-68
2022/09/09 00:24:22;;;;;;;9.55;4.50;;;;;;;8.57;83.83;99887.46;1666625;84;21063;-68
2022/09/09 00:26:58;;;;;;;10.08;4.87;;;;;;;8.54;83.86;99888.05;1678245;84;21049;-68
2022/09/09 00:29:37;;;;;;;8.20;4.62;;;;;;;8.48;84.29;99887.85;1681018;84;21103;-69
2022/09/09 00:32:18;;;;;;;8.63;4.62;;;;;;;8.48;84.37;99891.95;1681483;84;21011;-67
2022/09/09 00:34:53;;;;;;;9.35;4.10;;;;;;;8.47;84.55;99894.44;1646734;84;21192;-67
2022/09/09 00:37:25;;;;;;;8.78;4.42;;;;;;;8.42;84.90;99901.34;1670929;84;21033;-67
2022/09/09 00:39:56;;;;;;;11.08;4.12;;;;;;;8.40;85.01;99912.31;1678831;85;21186;-67
2022/09/09 00:42:42;;;;;;;8.40;4.15;;;;;;;8.38;85.16;99916.70;1674166;84;21584;-67
2022/09/09 00:45:36;;;;;;;9.60;4.03;;;;;;;8.37;84.94;99921.91;1677487;84;20963;-67
2022/09/09 00:48:13;;;;;;;10.98;4.17;;;;;;;8.33;85.01;99930.44;1658105;84;21195;-67
2022/09/09 00:50:58;;;;;;;9.93;4.35;;;;;;;8.28;85.43;99931.28;1668049;84;21057;-68
2022/09/09 00:54:01;;;;;;;7.53;3.98;;;;;;;8.27;85.49;99931.58;1674427;84;20955;-68
2022/09/09 00:56:45;;;;;;;9.48;4.30;;;;;;;8.26;85.49;99935.41;1670306;84;21012;-68
2022/09/09 00:59:22;;;;;;;8.40;4.75;;;;;;;8.21;85.50;99929.45;1671966;84;21009;-67
2022/09/09 01:01:55;;;;;;;7.62;3.85;;;;;;;8.15;85.52;99930.61;1685693;84;23451;-67
2022/09/09 01:04:28;;;;;;;8.03;4.28;;;;;;;8.10;85.82;99929.84;1689900;84;21066;-67
2022/09/09 01:07:00;;;;;;;13.53;4.58;;;;;;;8.08;85.98;99930.72;1666977;84;21585;-67
2022/09/09 01:09:48;;;;;;;8.73;3.98;;;;;;;8.04;86.25;99926.94;1686283;84;20959;-67
2022/09/09 01:12:45;;;;;;;9.08;4.17;;;;;;;8.00;86.62;99923.15;1653407;86;21582;-67
2022/09/09 01:15:33;;;;;;;8.15;4.33;;;;;;;7.94;87.07;99923.75;1606060;87;21178;-67
2022/09/09 01:18:05;;;;;;;12.53;4.60;;;;;;;7.92;87.22;99911.74;1632005;87;20928;-67
2022/09/09 01:20:49;;;;;;;6.75;3.90;;;;;;;7.89;87.43;99898.65;1625022;87;21035;-67
2022/09/09 01:23:34;;;;;;;8.83;4.47;;;;;;;7.86;87.70;99892.39;1676402;84;20887;-67
2022/09/09 01:26:28;;;;;;;8.28;4.28;;;;;;;7.82;87.94;99888.61;1607554;84;21000;-67
2022/09/09 01:29:02;;;;;;;9.03;4.10;;;;;;;7.80;88.28;99890.00;1641307;84;21024;-68
2022/09/09 01:31:38;;;;;;;9.80;4.47;;;;;;;7.77;88.52;99883.19;1655611;84;20960;-67
2022/09/09 01:34:19;;;;;;;11.95;4.20;;;;;;;7.74;88.60;99882.95;1671848;84;21027;-67
2022/09/09 01:37:07;;;;;;;10.93;4.45;;;;;;;7.72;88.98;99879.14;1676176;84;21436;-67
2022/09/09 01:39:40;;;;;;;9.18;4.83;;;;;;;7.71;89.16;99878.06;1674319;84;21062;-68
2022/09/09 01:42:12;;;;;;;7.20;3.87;;;;;;;7.68;89.23;99883.55;1688941;84;21206;-67
2022/09/09 01:44:42;;;;;;;8.93;4.50;;;;;;;7.67;89.39;99877.83;1674043;84;21105;-67
2022/09/09 01:47:18;;;;;;;7.25;3.87;;;;;;;7.65;89.74;99877.85;1671854;84;21003;-67
2022/09/09 01:49:54;;;;;;;11.70;4.28;;;;;;;7.63;89.93;99878.95;1657317;84;21406;-67
2022/09/09 01:52:25;;;;;;;9.08;4.37;;;;;;;7.64;89.92;99878.41;1648558;86;21025;-67
2022/09/09 01:54:58;;;;;;;8.38;3.98;;;;;;;7.65;89.91;99886.87;1675781;84;21833;-67
2022/09/09 01:57:48;;;;;;;10.28;4.35;;;;;;;7.65;90.01;99889.59;1672139;84;21109;-67
2022/09/09 02:00:18;;;;;;;8.83;4.12;;;;;;;7.64;90.24;99894.80;1669015;84;21183;-67
2022/09/09 02:03:13;;;;;;;11.90;4.47;;;;;;;7.62;90.24;99890.17;1681117;84;21724;-68
2022/09/09 02:05:47;;;;;;;9.68;4.28;;;;;;;7.64;90.34;99901.63;1667771;84;21022;-67
2022/09/09 02:08:49;;;;;;;8.08;4.17;;;;;;;7.61;90.17;99903.57;1649048;84;21400;-68
2022/09/09 02:11:22;;;;;;;10.78;4.40;;;;;;;7.58;90.37;99902.78;1666900;84;21029;-67
2022/09/09 02:13:54;;;;;;;9.15;3.70;;;;;;;7.56;90.68;99903.61;1671687;84;21015;-67
2022/09/09 02:16:40;;;;;;;9.03;4.65;;;;;;;7.56;90.76;99895.42;1628729;85;21051;-67
2022/09/09 02:19:36;;;;;;;8.55;4.03;;;;;;;7.54;90.96;99895.70;1630948;87;21582;-67
2022/09/09 02:22:08;;;;;;;9.38;4.40;;;;;;;7.55;91.03;99895.16;1665458;84;21295;-68
2022/09/09 02:24:40;;;;;;;7.70;3.90;;;;;;;7.54;91.11;99894.34;1681570;84;21020;-67
2022/09/09 02:27:12;;;;;;;8.03;3.87;;;;;;;7.53;91.11;99889.98;1669940;84;20955;-68
2022/09/09 02:29:44;;;;;;;9.15;5.08;;;;;;;7.52;91.21;99887.53;1644944;86;21099;-67
2022/09/09 02:32:27;;;;;;;9.33;4.40;;;;;;;7.50;91.39;99891.95;1657353;84;20941;-67
2022/09/09 02:34:59;;;;;;;10.70;4.63;;;;;;;7.50;91.41;99896.59;1660332;84;21343;-67
2022/09/09 02:37:38;;;;;;;9.23;4.83;;;;;;;7.49;91.45;99904.53;1686927;84;20900;-67
2022/09/09 02:40:10;;;;;;;8.83;4.37;;;;;;;7.47;91.47;99904.81;1655117;84;21047;-67
2022/09/09 02:42:46;;;;;;;6.95;4.08;;;;;;;7.45;91.77;99907.02;1608136;86;21575;-67
2022/09/09 02:45:27;;;;;;;9.10;4.55;;;;;;;7.46;91.99;99902.37;1654134;84;21054;-67
2022/09/09 02:48:13;;;;;;;9.98;4.37;;;;;;;7.44;92.21;99906.75;1677927;84;20885;-67
2022/09/09 02:51:18;;;;;;;9.78;4.90;;;;;;;7.45;92.28;99900.73;1672368;84;20917;-67
2022/09/09 02:54:36;;;;;;;8.33;4.85;;;;;;;7.45;92.21;99904.84;1676111;84;21059;-67
2022/09/09 02:57:17;;;;;;;10.15;4.72;;;;;;;7.43;92.17;99905.67;1677316;84;21004;-68
2022/09/09 02:59:52;;;;;;;15.08;4.95;;;;;;;7.39;92.32;99900.52;1672783;84;21674;-68
2022/09/09 03:02:21;;;;;;;12.85;4.97;;;;;;;7.36;92.35;99901.09;1680441;84;21685;-68
2022/09/09 03:04:51;;;;;;;7.15;4.15;;;;;;;7.32;92.58;99900.02;1650797;84;21030;-68
2022/09/09 03:07:23;;;;;;;9.78;4.20;;;;;;;7.28;92.75;99902.52;1652951;85;21582;-67
2022/09/09 03:09:54;;;;;;;23.52;4.92;;;;;;;7.25;92.89;99905.27;1679787;84;20952;-69
2022/09/09 03:12:25;;;;;;;8.38;4.47;;;;;;;7.21;93.12;99897.92;1666458;84;21136;-68
2022/09/09 03:14:52;;;;;;;11.93;5.10;;;;;;;7.18;93.37;99897.94;1685826;84;22561;-68
2022/09/09 03:17:19;;;;;;;10.82;4.30;;;;;;;7.17;93.60;99900.41;1666387;85;21701;-68
2022/09/09 03:19:49;;;;;;;8.43;4.47;;;;;;;7.16;93.80;99895.23;1674490;84;21105;-68
2022/09/09 03:22:16;;;;;;;11.25;4.65;;;;;;;7.15;94.14;99899.06;1670001;84;21034;-68
2022/09/09 03:24:44;;;;;;;10.28;4.50;;;;;;;7.13;94.29;99895.80;1672182;84;21046;-68
2022/09/09 03:27:10;;;;;;;6.25;3.60;;;;;;;7.13;94.49;99901.26;1672658;84;21427;-67
2022/09/09 03:29:38;;;;;;;11.28;4.60;;;;;;;7.12;94.70;99905.91;1656849;84;21143;-69
2022/09/09 03:32:10;;;;;;;9.98;4.45;;;;;;;7.10;94.81;99905.38;1649329;85;21010;-68
2022/09/09 03:34:40;;;;;;;10.03;3.92;;;;;;;7.11;94.86;99910.28;1647043;85;21031;-67
2022/09/09 03:37:06;;;;;;;10.25;4.53;;;;;;;7.11;95.00;99900.73;1655312;84;20996;-67
2022/09/09 03:39:34;;;;;;;7.12;3.92;;;;;;;7.09;94.97;99894.73;1661733;84;21770;-70
2022/09/09 03:42:05;;;;;;;11.60;4.65;;;;;;;7.10;95.16;99895.81;1663643;84;21548;-69
2022/09/09 03:44:32;;;;;;;14.38;4.03;;;;;;;7.11;95.36;99898.81;1667758;84;20991;-67
2022/09/09 03:47:00;;;;;;;12.18;4.47;;;;;;;7.12;95.46;99904.53;1682150;84;20994;-68
2022/09/09 03:49:28;;;;;;;13.85;4.33;;;;;;;7.14;95.45;99907.80;1681559;84;20971;-68
2022/09/09 03:51:57;;;;;;;9.23;4.60;;;;;;;7.17;95.45;99904.50;1672142;84;21277;-66
2022/09/09 03:54:25;;;;;;;11.50;4.35;;;;;;;7.20;95.39;99908.58;1669885;84;21057;-68
2022/09/09 03:56:51;;;;;;;7.78;4.30;;;;;;;7.23;95.29;99920.30;1686682;84;21010;-67
2022/09/09 03:59:18;;;;;;;8.95;3.95;;;;;;;7.26;95.33;99922.46;1667471;84;20961;-67
2022/09/09 04:01:45;;;;;;;8.98;4.55;;;;;;;7.26;95.19;99919.18;1682953;84;21482;-71
2022/09/09 04:04:12;;;;;;;10.03;5.10;;;;;;;7.26;95.18;99922.46;1680081;84;21269;-69
2022/09/09 04:06:39;;;;;;;13.72;4.33;;;;;;;7.27;95.35;99930.38;1669456;84;20916;-69
2022/09/09 04:09:05;;;;;;;10.95;4.00;;;;;;;7.32;95.23;99935.53;1674125;84;21727;-71
2022/09/09 04:11:33;;;;;;;8.05;3.95;;;;;;;7.34;95.28;99930.59;1676925;84;21003;-70
2022/09/09 04:14:00;;;;;;;8.63;3.85;;;;;;;7.35;95.24;99936.33;1672109;84;21170;-69
2022/09/09 04:16:29;;;;;;;11.78;4.55;;;;;;;7.37;95.18;99944.50;1682882;84;21186;-68
2022/09/09 04:18:56;;;;;;;14.18;4.58;;;;;;;7.41;95.08;99944.75;1684641;84;21423;-69
2022/09/09 04:21:23;;;;;;;10.88;4.67;;;;;;;7.48;95.04;99947.97;1684464;84;21014;-68
2022/09/09 04:23:51;;;;;;;14.30;5.00;;;;;;;7.53;94.81;99950.08;1674641;84;21037;-74
2022/09/09 04:26:18;;;;;;;17.02;5.05;;;;;;;7.59;94.59;99948.94;1665556;84;21152;-74
2022/09/09 04:28:45;;;;;;;21.27;4.33;;;;;;;7.66;94.29;99953.26;1676057;84;21134;-71
2022/09/09 04:31:22;;;;;;;9.95;4.25;;;;;;;7.72;94.02;99952.11;1685841;83;20994;-77
2022/09/09 04:33:50;;;;;;;8.33;4.40;;;;;;;7.75;93.81;99957.01;1679670;84;21065;-74
2022/09/09 04:36:19;;;;;;;10.03;3.75;;;;;;;7.81;93.61;99972.26;1673087;84;20986;-75
2022/09/09 04:38:48;;;;;;;9.90;4.50;;;;;;;7.87;93.33;99964.28;1636796;84;21388;-75
2022/09/09 04:41:16;;;;;;;9.63;4.33;;;;;;;7.93;93.11;99961.21;1673489;84;21175;-74
2022/09/09 04:43:44;;;;;;;10.43;4.50;;;;;;;8.03;93.02;99953.46;1673967;84;20902;-74
2022/09/09 04:46:11;;;;;;;9.98;4.50;;;;;;;8.12;92.75;99953.06;1672284;84;21046;-74
2022/09/09 04:48:39;;;;;;;9.08;3.95;;;;;;;8.21;92.26;99955.98;1675713;84;21021;-70
2022/09/09 04:51:11;;;;;;;10.18;4.53;;;;;;;8.33;92.23;99962.45;1688205;84;21489;-73
2022/09/09 04:53:37;;;;;;;15.28;4.40;;;;;;;8.45;91.54;99954.11;1669711;84;21275;-71
2022/09/09 04:56:16;;;;;;;10.85;3.83;;;;;;;8.59;91.41;99948.74;1677388;84;20953;-74
2022/09/09 04:58:45;;;;;;;11.40;4.70;;;;;;;8.75;90.38;99943.86;1686962;84;20909;-74
2022/09/09 05:01:18;;;;;;;10.20;4.65;;;;;;;8.91;89.75;99935.70;1678072;84;21082;-72
2022/09/09 05:03:46;;;;;;;9.35;4.05;;;;;;;9.06;89.12;99937.41;1667307;84;21097;-71
2022/09/09 05:06:19;;;;;;;10.60;3.92;;;;;;;9.22;88.37;99932.78;1680699;84;20910;-70
2022/09/09 05:08:52;;;;;;;20.30;4.13;;;;;;;9.39;87.24;99932.78;1679952;85;20957;-72
2022/09/09 05:11:30;;;;;;;6.40;3.58;;;;;;;9.55;87.25;99939.64;1686002;84;20910;-72
2022/09/09 05:14:06;;;;;;;6.87;3.37;;;;;;;9.73;86.47;99933.30;1680678;84;20988;-71
2022/09/09 05:16:33;;;;;;;10.00;3.52;;;;;;;9.88;85.10;99922.04;1673071;84;21014;-69
2022/09/09 05:19:02;;;;;;;7.78;2.95;;;;;;;10.00;83.81;99918.81;1676807;84;21562;-69
2022/09/09 05:21:31;;;;;;;9.83;3.90;;;;;;;10.08;82.12;99911.25;1680761;84;21096;-69
2022/09/09 05:24:00;;;;;;;12.05;3.50;;;;;;;10.15;82.66;99906.74;1681098;84;20945;-72
2022/09/09 05:26:29;;;;;;;10.30;3.05;;;;;;;10.24;81.43;99903.58;1688592;84;21020;-73
2022/09/09 05:28:56;;;;;;;7.90;3.08;;;;;;;10.32;80.43;99907.54;1688050;84;20944;-68
2022/09/09 05:31:25;;;;;;;7.65;2.98;;;;;;;10.37;80.28;99912.38;1694845;84;21562;-68
2022/09/09 05:33:52;;;;;;;16.20;3.70;;;;;;;10.45;80.08;99918.48;1677625;84;20989;-70
2022/09/09 05:36:25;;;;;;;4.60;2.47;;;;;;;10.57;78.41;99933.07;1685679;84;21008;-67
2022/09/09 05:38:58;;;;;;;4.65;2.70;;;;;;;10.65;78.11;99931.54;1678254;84;21063;-68
2022/09/09 05:41:32;;;;;;;26.57;3.92;;;;;;;10.73;77.25;99934.38;1674887;84;20954;-72
2022/09/09 05:44:08;;;;;;;5.28;2.10;;;;;;;10.83;77.05;99939.66;1684920;84;21930;-69
2022/09/09 05:46:45;;;;;;;8.13;3.10;;;;;;;10.94;76.38;99946.30;1679990;84;21608;-68
2022/09/09 05:49:18;;;;;;;5.78;2.98;;;;;;;11.01;75.91;99933.74;1678321;85;20913;-67
2022/09/09 05:51:52;;;;;;;9.38;2.72;;;;;;;11.10;74.06;99937.95;1683289;84;20965;-67
2022/09/09 05:54:19;;;;;;;10.20;2.52;;;;;;;11.14;73.76;99939.77;1685277;84;20860;-69
2022/09/09 05:56:52;;;;;;;5.08;2.67;;;;;;;11.25;74.47;99937.03;1674871;84;23132;-68
2022/09/09 05:59:23;;;;;;;6.37;2.57;;;;;;;11.44;74.19;99932.74;1686177;84;20981;-68
2022/09/09 06:01:54;;;;;;;5.62;2.50;;;;;;;11.64;72.72;99925.09;1669217;84;21526;-70
2022/09/09 06:04:26;;;;;;;11.78;2.35;;;;;;;11.80;73.30;99923.61;1673125;84;21014;-70
2022/09/09 06:06:53;;;;;;;5.58;2.60;;;;;;;12.00;71.76;99922.27;1658182;84;21001;-81
2022/09/09 06:09:23;;;;;;;6.00;2.70;;;;;;;12.13;70.62;99921.36;1673479;83;21003;-74
2022/09/09 06:11:54;;;;;;;7.33;2.65;;;;;;;12.29;68.80;99921.16;1664126;84;21038;-76
2022/09/09 06:14:25;;;;;;;5.97;2.15;;;;;;;12.43;69.16;99917.73;1678660;84;21503;-75
2022/09/09 06:16:54;;;;;;;5.05;2.85;;;;;;;12.59;68.68;99918.11;1675815;84;21070;-77
2022/09/09 06:19:26;;;;;;;8.65;3.05;;;;;;;12.69;67.44;99919.19;1673453;84;21084;-74
2022/09/09 06:21:54;;;;;;;5.28;2.85;;;;;;;12.78;67.83;99929.63;1668268;84;21241;-70
2022/09/09 06:24:22;;;;;;;9.08;3.37;;;;;;;12.87;66.81;99923.58;1650729;85;21170;-72
2022/09/09 06:26:49;;;;;;;10.88;3.30;;;;;;;12.97;66.42;99925.78;1687257;84;21035;-71
2022/09/09 06:29:18;;;;;;;5.95;3.42;;;;;;;13.09;65.03;99928.72;1667947;84;21565;-76
2022/09/09 06:31:52;;;;;;;6.53;3.08;;;;;;;13.22;65.59;99919.51;1651815;85;21074;-73
2022/09/09 06:34:30;;;;;;;12.70;3.27;;;;;;;13.38;65.28;99925.32;1646770;86;23077;-76
2022/09/09 06:37:01;;;;;;;7.55;3.05;;;;;;;13.55;64.84;99932.20;1664204;84;21528;-77
2022/09/09 06:39:50;;;;;;;11.00;3.27;;;;;;;13.74;64.21;99936.00;1683853;84;21006;-71
2022/09/09 06:42:26;;;;;;;7.03;3.52;;;;;;;13.91;62.92;99934.56;1644342;84;48610;-71
2022/09/09 06:44:55;;;;;;;9.05;2.83;;;;;;;14.05;62.95;99932.98;1674051;83;21422;-72
2022/09/09 06:47:24;;;;;;;6.92;2.85;;;;;;;14.20;62.69;99933.83;1636600;84;21935;-73
2022/09/09 06:49:53;;;;;;;6.12;2.90;;;;;;;14.33;62.21;99938.90;1602932;88;21034;-69
2022/09/09 06:52:24;;;;;;;6.55;2.90;;;;;;;14.39;61.04;99932.86;1669997;84;21533;-68
2022/09/09 06:54:53;;;;;;;6.23;2.67;;;;;;;14.42;60.97;99930.85;1676046;84;21201;-72
2022/09/09 06:57:21;;;;;;;9.25;3.58;;;;;;;14.52;61.24;99932.40;1683277;84;21034;-77
2022/09/09 06:59:52;;;;;;;5.00;2.87;;;;;;;14.67;61.89;99938.74;1685732;84;21330;-75
2022/09/09 07:02:19;;;;;;;6.92;2.75;;;;;;;14.82;59.71;99937.36;1667254;84;21063;-78
2022/09/09 07:04:50;;;;;;;6.53;2.75;;;;;;;14.91;58.57;99938.69;1651416;84;21015;-76
2022/09/09 07:07:20;;;;;;;4.47;2.40;;;;;;;15.00;59.55;99933.34;1679966;84;21048;-77
2022/09/09 07:09:50;;;;;;;10.48;2.40;;;;;;;15.18;58.99;99932.05;1687115;84;20950;-77
2022/09/09 07:12:22;;;;;;;4.00;2.12;;;;;;;15.28;57.58;99930.84;1677073;84;21968;-82
2022/09/09 07:14:52;;;;;;;3.85;2.08;;;;;;;15.29;57.37;99927.50;1667121;84;21088;-76
2022/09/09 07:17:20;;;;;;;6.33;2.10;;;;;;;15.33;56.58;99936.16;1691611;84;21542;-76
2022/09/09 07:19:49;;;;;;;8.00;2.20;;;;;;;15.45;57.12;99937.61;1664434;84;21448;-75
2022/09/09 07:22:19;;;;;;;2.98;1.75;;;;;;;15.64;56.63;99935.73;1653947;85;21069;-77
2022/09/09 07:24:49;;;;;;;6.42;2.22;;;;;;;15.79;55.05;99938.45;1652173;85;21193;-71
2022/09/09 07:27:22;;;;;;;17.15;1.98;;;;;;;15.93;55.82;99939.53;1629814;87;21028;-74
2022/09/09 07:29:51;;;;;;;16.70;2.30;;;;;;;16.03;51.78;99936.33;1612541;87;21087;-71
2022/09/09 07:32:20;;;;;;;8.30;2.05;;;;;;;16.01;52.94;99938.63;1639256;84;21511;-77
2022/09/09 07:34:52;;;;;;;9.03;2.20;;;;;;;16.05;53.19;99944.53;1614839;86;21008;-85
2022/09/09 07:37:19;;;;;;;6.17;1.92;;;;;;;16.10;53.07;99936.00;1674217;84;21171;-82
2022/09/09 07:39:49;;;;;;;8.30;2.10;;;;;;;16.19;52.57;99931.72;1636056;86;21066;-78
2022/09/09 07:42:20;;;;;;;5.58;2.20;;;;;;;16.29;51.96;99938.78;1663646;84;21094;-82
2022/09/09 07:44:48;;;;;;;3.17;1.70;;;;;;;16.37;52.31;99943.41;1661495;84;20996;-81
2022/09/09 07:47:17;;;;;;;5.08;1.87;;;;;;;16.51;50.57;99937.77;1666141;84;21122;-74
2022/09/09 07:49:51;;;;;;;4.28;1.70;;;;;;;16.64;49.79;99946.92;1661300;84;21275;-82
2022/09/09 07:52:22;;;;;;;6.08;1.70;;;;;;;16.72;49.91;99952.12;1668237;85;21019;-71
2022/09/09 07:54:56;;;;;;;6.55;2.12;;;;;;;16.77;49.73;99949.09;1655233;84;21033;-84
2022/09/09 07:57:30;;;;;;;87.30;18.00;;;;;;;16.78;48.90;99943.77;1668070;84;21499;-80
2022/09/09 08:00:02;;;;;;;46.25;21.97;;;;;;;16.82;47.79;99941.34;1644644;85;21162;-72
2022/09/09 08:02:33;;;;;;;68.78;35.98;;;;;;;16.86;49.17;99949.78;1657013;85;21251;-86
2022/09/09 08:05:00;;;;;;;38.67;19.42;;;;;;;16.92;48.73;99947.58;1636753;85;21053;-80
2022/09/09 08:07:38;;;;;;;29.18;12.60;;;;;;;16.91;47.71;99956.47;1654998;84;21050;-76
2022/09/09 08:10:09;;;;;;;37.48;14.40;;;;;;;16.74;47.85;99953.97;1649297;84;21003;-74
2022/09/09 08:12:38;;;;;;;15.95;6.72;;;;;;;16.63;48.54;99945.85;1662238;84;21595;-71
2022/09/09 08:15:08;;;;;;;14.23;5.42;;;;;;;16.67;49.89;99944.03;1643071;85;20950;-74
2022/09/09 08:17:39;;;;;;;21.65;7.87;;;;;;;16.77;48.42;99942.97;1654109;84;21102;-83
2022/09/09 08:20:12;;;;;;;19.77;7.33;;;;;;;16.89;48.80;99950.47;1661791;84;20924;-88
2022/09/09 08:22:41;;;;;;;23.20;9.98;;;;;;;17.08;48.51;99944.33;1635446;86;21101;-79
2022/09/09 08:25:12;;;;;;;18.10;6.75;;;;;;;17.20;46.42;99938.75;1641615;85;20995;-80
2022/09/09 08:27:39;;;;;;;6.03;2.70;;;;;;;17.20;46.77;99934.59;1648372;85;21239;-74
2022/09/09 08:30:10;;;;;;;12.10;4.20;;;;;;;17.09;46.89;99932.87;1652750;85;21109;-77
2022/09/09 08:32:45;;;;;;;5.70;3.20;;;;;;;17.03;47.69;99926.53;1655967;86;21144;-87
2022/09/09 08:35:14;;;;;;;7.95;1.85;;;;;;;17.12;47.24;99932.76;1649453;85;21674;-84
2022/09/09 08:37:45;;;;;;;5.03;2.17;;;;;;;17.20;46.84;99926.84;1655836;84;21039;-78
2022/09/09 08:40:18;;;;;;;10.10;2.20;;;;;;;17.20;47.48;99924.08;1669097;84;21724;-78
2022/09/09 08:42:51;;;;;;;12.65;2.47;;;;;;;17.31;47.45;99914.91;1671675;84;20975;-82
2022/09/09 08:45:24;;;;;;;13.40;3.10;;;;;;;17.48;46.79;99897.13;1673403;84;21589;-79
2022/09/09 08:48:08;;;;;;;3.47;1.80;;;;;;;17.54;47.58;99907.40;1675614;84;21014;-83
2022/09/09 08:50:41;;;;;;;11.40;2.62;;;;;;;17.63;47.32;99915.00;1673074;84;20923;-77
2022/09/09 08:53:22;;;;;;;9.33;1.82;;;;;;;17.68;45.12;99913.39;1674414;84;21272;-89
2022/09/09 08:56:03;;;;;;;9.33;2.10;;;;;;;17.59;44.27;99919.06;1657689;84;21432;-83
2022/09/09 08:58:41;;;;;;;7.55;1.67;;;;;;;17.49;43.99;99920.37;1687166;84;20955;-73
2022/09/09 09:01:34;;;;;;;8.95;1.57;;;;;;;17.47;45.75;99913.55;1645550;84;21593;-80
2022/09/09 09:04:44;;;;;;;6.65;1.90;;;;;;;17.51;45.39;99914.47;1676301;84;21079;-82
2022/09/09 09:07:24;;;;;;;8.93;2.55;;;;;;;17.58;45.04;99913.28;1643584;86;21899;-77
2022/09/09 09:10:07;;;;;;;6.00;2.50;;;;;;;17.48;44.50;99909.04;1675695;84;21063;-79
2022/09/09 09:12:42;;;;;;;5.55;1.67;;;;;;;17.46;45.48;99902.23;1678625;84;21055;-77
2022/09/09 09:15:25;;;;;;;10.30;2.00;;;;;;;17.49;44.66;99900.94;1654888;84;21087;-79
2022/09/09 09:17:54;;;;;;;;;;;;;;;17.48;44.21;99905.45;1673010;84;21157;-80
2022/09/09 09:20:43;;;;;;;14.98;6.08;;;;;;;17.43;43.92;99902.35;1671910;84;21184;-77
2022/09/09 09:23:20;;;;;;;17.60;6.45;;;;;;;17.36;43.87;99902.72;1675034;84;21093;-72
2022/09/09 09:25:51;;;;;;;12.00;3.65;;;;;;;17.40;45.54;99902.25;1649285;84;21255;-74
2022/09/09 09:28:24;;;;;;;11.50;5.30;;;;;;;17.53;44.22;99900.23;1671597;84;20995;-74
2022/09/09 09:31:04;;;;;;;15.95;4.85;;;;;;;17.59;43.96;99894.66;1675990;84;20953;-77
2022/09/09 09:33:44;;;;;;;26.17;4.50;;;;;;;17.58;42.99;99892.46;1691431;84;21109;-77
2022/09/09 09:36:19;;;;;;;7.42;3.37;;;;;;;17.49;43.33;99901.52;1683133;84;20926;-70
2022/09/09 09:39:00;;;;;;;13.48;4.00;;;;;;;17.33;43.80;99904.23;1687243;84;21590;-72
2022/09/09 09:41:43;;;;;;;8.70;3.75;;;;;;;17.28;44.38;99900.35;1676674;84;20877;-71
2022/09/09 09:44:32;;;;;;;12.95;2.45;;;;;;;17.28;44.69;99902.32;1665562;84;21061;-71
2022/09/09 09:47:26;;;;;;;11.18;2.80;;;;;;;17.31;44.38;99901.62;1650384;84;20940;-72
2022/09/09 09:50:00;;;;;;;6.45;2.37;;;;;;;17.35;43.84;99906.66;1675629;83;21499;-72
2022/09/09 09:52:37;;;;;;;15.70;3.17;;;;;;;17.38;44.92;99908.73;1662602;84;20900;-78
2022/09/09 09:55:13;;;;;;;10.75;2.55;;;;;;;17.42;44.48;99897.96;1671649;84;21518;-72
2022/09/09 09:57:44;;;;;;;4.53;1.60;;;;;;;17.44;44.08;99904.55;1649104;85;21036;-72
2022/09/09 10:00:18;;;;;;;22.50;2.70;;;;;;;17.43;44.42;99907.09;1661516;84;21189;-75
2022/09/09 10:02:56;;;;;;;6.58;1.90;;;;;;;17.38;44.14;99899.02;1586763;87;20984;-75
2022/09/09 10:05:31;;;;;;;32.88;3.25;;;;;;;17.33;44.31;99905.62;1641661;86;21110;-77
2022/09/09 10:08:11;;;;;;;3.60;1.60;;;;;;;17.31;43.33;99914.10;1653162;84;21521;-74
2022/09/09 10:11:03;;;;;;;3.72;2.45;;;;;;;17.26;43.50;99914.34;1670351;84;20909;-71
2022/09/09 10:14:07;;;;;;;8.68;2.27;;;;;;;17.20;43.52;99917.14;1678295;84;21049;-76
2022/09/09 10:16:54;;;;;;;5.17;1.80;;;;;;;17.15;44.44;99921.77;1689847;84;21064;-70
2022/09/09 10:19:39;;;;;;;14.03;1.90;;;;;;;17.15;44.14;99920.96;1683810;84;21000;-76
2022/09/09 10:22:27;;;;;;;5.67;1.70;;;;;;;17.09;43.81;99917.63;1695778;84;20977;-78
2022/09/09 10:25:29;;;;;;;9.13;2.00;;;;;;;17.06;44.14;99916.13;1680672;84;20969;-82
2022/09/09 10:28:17;;;;;;;7.25;2.12;;;;;;;17.02;43.86;99911.86;1671020;83;22285;-85
2022/09/09 10:31:14;;;;;;;7.83;3.00;;;;;;;17.00;44.35;99918.33;1663878;84;20906;-79
2022/09/09 10:34:06;;;;;;;10.72;1.80;;;;;;;16.97;44.72;99914.06;1680622;84;21048;-74
2022/09/09 10:36:37;;;;;;;8.83;2.17;;;;;;;16.91;44.75;99913.49;1618011;87;21068;-74
2022/09/09 10:39:05;;;;;;;7.90;2.00;;;;;;;16.88;46.17;99909.22;1648949;85;20983;-74
2022/09/09 10:42:05;;;;;;;17.65;2.60;;;;;;;16.85;44.97;99909.34;1649745;86;21184;-79
2022/09/09 10:44:50;;;;;;;6.30;1.90;;;;;;;16.80;45.77;99912.34;1669027;84;21153;-79
2022/09/09 10:47:35;;;;;;;2.58;1.75;;;;;;;16.74;45.58;99910.42;1654005;85;20915;-81
2022/09/09 10:50:44;;;;;;;12.15;1.90;;;;;;;16.69;45.67;99912.63;1668573;83;21158;-81
2022/09/09 10:53:27;;;;;;;8.10;2.00;;;;;;;16.66;45.82;99913.31;1668931;84;21022;-81
2022/09/09 10:56:11;;;;;;;7.67;1.75;;;;;;;16.64;44.31;99914.20;1683795;83;21056;-79
2022/09/09 10:58:53;;;;;;;31.40;3.50;;;;;;;16.58;44.52;99910.05;1669545;84;21134;-78
2022/09/09 11:01:23;;;;;;;4.58;1.80;;;;;;;16.51;44.79;99911.44;1675456;84;21050;-87
2022/09/09 11:04:08;;;;;;;4.33;1.92;;;;;;;16.48;45.93;99910.74;1652730;86;21122;-80
2022/09/09 11:06:44;;;;;;;5.75;1.82;;;;;;;16.50;45.47;99912.59;1671063;84;21145;-79
2022/09/09 11:09:19;;;;;;;8.08;2.12;;;;;;;16.48;44.53;99914.90;1668501;84;21181;-82
2022/09/09 11:11:57;;;;;;;9.15;1.85;;;;;;;16.44;44.54;99909.81;1656961;84;20924;-75
2022/09/09 11:14:45;;;;;;;5.10;1.60;;;;;;;16.35;44.45;99905.54;1598918;87;21046;-74
2022/09/09 11:17:18;;;;;;;5.70;2.00;;;;;;;16.29;45.52;99906.92;1668759;84;21481;-69
2022/09/09 11:19:54;;;;;;;8.58;1.47;;;;;;;16.21;45.80;99905.88;1660008;84;21336;-70
2022/09/09 11:22:49;;;;;;;4.70;1.37;;;;;;;16.18;46.50;99902.41;1675978;84;20907;-73
2022/09/09 11:25:29;;;;;;;7.00;2.08;;;;;;;16.14;45.92;99905.66;1679709;83;21027;-70
2022/09/09 11:28:22;;;;;;;19.20;2.33;;;;;;;16.08;47.63;99905.07;1669896;84;21030;-71
2022/09/09 11:31:36;;;;;;;4.85;1.47;;;;;;;16.01;47.80;99911.75;1675693;84;21559;-76
2022/09/09 11:34:23;;;;;;;6.37;1.50;;;;;;;15.92;48.50;99910.23;1630850;85;21070;-68
2022/09/09 11:37:37;;;;;;;4.67;1.50;;;;;;;15.76;49.23;99905.34;1666973;84;21511;-69
2022/09/09 11:40:25;;;;;;;7.28;2.05;;;;;;;15.66;51.09;99897.46;1650617;86;21525;-72
2022/09/09 11:43:17;;;;;;;3.35;1.80;;;;;;;15.53;51.76;99891.65;1646242;85;21076;-74
2022/09/09 11:45:48;;;;;;;9.68;2.55;;;;;;;15.41;51.96;99876.38;1658775;84;20978;-73
2022/09/09 11:48:45;;;;;;;3.40;1.98;;;;;;;15.31;51.65;99894.20;1606167;86;20992;-73
2022/09/09 11:51:23;;;;;;;4.67;2.30;;;;;;;15.23;52.94;99892.89;1654453;85;21558;-80
2022/09/09 11:54:06;;;;;;;10.75;2.33;;;;;;;15.14;53.59;99892.39;1666748;84;21065;-79
2022/09/09 11:56:43;;;;;;;4.72;2.33;;;;;;;15.08;55.34;99897.08;1684665;84;21050;-79
2022/09/09 11:59:33;;;;;;;6.17;2.40;;;;;;;15.01;57.38;99901.79;1662603;84;21025;-72
2022/09/09 12:02:16;;;;;;;4.92;2.52;;;;;;;14.90;56.73;99890.89;1661040;84;21045;-71
2022/09/09 12:05:00;;;;;;;9.60;2.80;;;;;;;14.80;58.11;99900.95;1667009;84;21180;-80
2022/09/09 12:07:58;;;;;;;7.78;3.25;;;;;;;14.71;59.92;99898.82;1653106;84;21509;-73
2022/09/09 12:10:38;;;;;;;9.18;3.42;;;;;;;14.64;60.73;99910.97;1669403;84;21020;-75
2022/09/09 12:13:23;;;;;;;7.20;2.95;;;;;;;14.55;63.36;99909.64;1680009;84;21024;-75
2022/09/09 12:15:55;;;;;;;4.80;2.72;;;;;;;14.49;64.60;99913.16;1664363;84;21119;-73
2022/09/09 12:18:36;;;;;;;8.98;2.40;;;;;;;14.42;65.93;99927.28;1669279;84;21157;-72